Time;durP1;ratioP1;P1;durP2;ratioP2;P2;SDS_P1;SDS_P2;PMS_P1;PMS_P2;Temp;Humidity;BMP_temperature;BMP_pressure;BME280_temperature;BME280_humidity;BME280_pressure;Samples;Min_cycle;Max_cycle;Signal;HPM_P1;HPM_P2
2023/08/06 00:00:44;;;;;;;;;;;;;;;29.31;46.75;98163.47;5052222;28;19943;-78
2023/08/06 00:03:09;;;;;;;;;;;;;;;29.29;44.65;98162.22;5052215;28;20305;-78
2023/08/06 00:05:35;;;;;;;;;;;;;;;29.22;46.62;98170.09;5052443;28;19909;-78
2023/08/06 00:08:00;;;;;;;;;;;;;;;29.15;48.22;98159.78;5034602;28;19915;-78
2023/08/06 00:10:25;;;;;;;;;;;;;;;29.13;48.71;98180.25;5052045;28;19909;-78
2023/08/06 00:12:51;;;;;;;;;;;;;;;29.10;46.35;98179.00;5052157;28;19916;-78
2023/08/06 00:15:16;;;;;;;;;;;;;;;29.06;48.68;98173.44;5051925;28;19931;-78
2023/08/06 00:17:41;;;;;;;;;;;;;;;29.04;48.33;98172.97;5052362;28;19908;-78
2023/08/06 00:20:07;;;;;;;;;;;;;;;29.04;47.65;98183.06;5052305;28;20374;-76
2023/08/06 00:22:33;;;;;;;;;;;;;;;29.03;46.29;98186.91;5034351;28;19912;-76
2023/08/06 00:24:58;;;;;;;;;;;;;;;28.99;48.54;98188.69;5042447;28;19930;-79
2023/08/06 00:27:23;;;;;;;;;;;;;;;28.95;47.50;98180.38;5065340;28;19909;-79
2023/08/06 00:29:48;;;;;;;;;;;;;;;28.93;45.92;98179.91;5054065;28;19909;-76
2023/08/06 00:32:14;;;;;;;;;;;;;;;28.88;47.62;98174.69;5052090;28;19901;-77
2023/08/06 00:34:39;;;;;;;;;;;;;;;28.85;48.78;98169.91;5034610;28;20003;-78
2023/08/06 00:37:05;;;;;;;;;;;;;;;28.84;49.56;98179.19;5052181;28;19909;-78
2023/08/06 00:39:30;;;;;;;;;;;;;;;28.79;48.82;98174.72;5051938;28;20301;-77
2023/08/06 00:41:55;;;;;;;;;;;;;;;28.76;49.85;98172.66;5052097;28;19916;-78
2023/08/06 00:44:20;;;;;;;;;;;;;;;28.73;48.56;98175.25;5051477;28;19917;-77
2023/08/06 00:46:46;;;;;;;;;;;;;;;28.70;50.58;98184.84;5051586;28;20409;-78
2023/08/06 00:49:11;;;;;;;;;;;;;;;28.66;50.10;98175.75;5055805;28;19946;-78
2023/08/06 00:51:37;;;;;;;;;;;;;;;28.65;49.66;98176.09;5066124;28;19915;-78
2023/08/06 00:54:02;;;;;;;;;;;;;;;28.64;47.74;98175.31;5054591;28;19999;-78
2023/08/06 00:56:28;;;;;;;;;;;;;;;28.65;48.96;98166.03;5052011;28;20366;-79
2023/08/06 00:58:53;;;;;;;;;;;;;;;28.67;49.73;98171.13;5051976;28;19920;-79
2023/08/06 01:01:19;;;;;;;;;;;;;;;28.65;48.66;98165.22;5051416;28;20393;-78
2023/08/06 01:03:44;;;;;;;;;;;;;;;28.62;49.66;98163.97;5052296;28;19920;-78
2023/08/06 01:06:09;;;;;;;;;;;;;;;28.60;50.43;98158.06;5055550;28;20014;-78
2023/08/06 01:08:41;;;;;;;;;;;;;;;28.55;50.28;98160.97;5055586;28;19940;-77
2023/08/06 01:11:18;;;;;;;;;;;;;;;28.54;49.22;98148.53;5055567;28;19909;-77
2023/08/06 01:13:47;;;;;;;;;;;;;;;28.54;47.91;98143.09;5055693;28;19905;-76
2023/08/06 01:16:19;;;;;;;;;;;;;;;28.50;49.51;98138.66;5055522;28;19916;-77
2023/08/06 01:18:49;;;;;;;;;;;;;;;28.43;51.14;98137.25;5055551;28;19908;-78
2023/08/06 01:21:14;;;;;;;;;;;;;;;28.43;49.95;98123.69;5055490;28;19934;-78
2023/08/06 01:23:40;;;;;;;;;;;;;;;28.42;51.49;98116.66;5037258;28;19912;-76
2023/08/06 01:26:11;;;;;;;;;;;;;;;28.40;49.63;98110.78;5055407;28;19908;-77
2023/08/06 01:28:36;;;;;;;;;;;;;;;28.41;50.25;98111.56;5037332;28;19913;-76
2023/08/06 01:31:03;;;;;;;;;;;;;;;28.37;49.01;98116.06;5037224;28;19912;-79
2023/08/06 01:33:32;;;;;;;;;;;;;;;28.29;48.74;98112.28;5055162;28;19991;-79
2023/08/06 01:35:57;;;;;;;;;;;;;;;28.28;52.53;98107.19;5055172;28;20394;-78
2023/08/06 01:38:23;;;;;;;;;;;;;;;28.20;50.57;98094.41;5055328;28;19952;-79
2023/08/06 01:40:49;;;;;;;;;;;;;;;28.12;52.87;98096.03;5054857;28;19992;-78
2023/08/06 01:43:14;;;;;;;;;;;;;;;28.05;51.75;98107.41;5054888;28;19919;-76
2023/08/06 01:45:39;;;;;;;;;;;;;;;28.02;52.11;98105.34;5055118;28;19908;-79
2023/08/06 01:48:04;;;;;;;;;;;;;;;28.02;52.11;98094.50;5054601;28;19986;-78
2023/08/06 01:50:30;;;;;;;;;;;;;;;27.98;51.47;98095.47;5054799;28;19963;-78
2023/08/06 01:52:55;;;;;;;;;;;;;;;27.92;51.46;98100.28;5054816;28;20601;-78
2023/08/06 01:55:20;;;;;;;;;;;;;;;27.90;52.62;98107.16;5054246;28;20412;-79
2023/08/06 01:57:45;;;;;;;;;;;;;;;27.85;51.50;98094.59;5036615;28;19909;-79
2023/08/06 02:00:11;;;;;;;;;;;;;;;27.81;52.02;98093.66;5054435;28;19974;-77
2023/08/06 02:02:36;;;;;;;;;;;;;;;27.79;52.64;98096.69;5054441;28;19912;-79
2023/08/06 02:05:01;;;;;;;;;;;;;;;27.78;50.81;98094.31;5054502;28;19915;-77
2023/08/06 02:07:27;;;;;;;;;;;;;;;27.74;53.79;98090.66;5054602;28;20309;-79
2023/08/06 02:09:52;;;;;;;;;;;;;;;27.72;52.42;98103.75;5054313;28;19909;-79
2023/08/06 02:12:17;;;;;;;;;;;;;;;27.68;54.47;98098.16;5054308;28;19952;-78
2023/08/06 02:14:42;;;;;;;;;;;;;;;27.69;53.16;98096.25;5054092;28;19909;-78
2023/08/06 02:17:08;;;;;;;;;;;;;;;27.68;52.10;98087.31;5054268;28;19915;-78
2023/08/06 02:19:33;;;;;;;;;;;;;;;27.63;54.00;98094.84;5054156;28;20351;-76
2023/08/06 02:21:58;;;;;;;;;;;;;;;27.60;54.00;98090.84;5054207;28;19935;-79
2023/08/06 02:24:23;;;;;;;;;;;;;;;27.57;53.05;98094.19;5035916;28;20373;-79
2023/08/06 02:26:50;;;;;;;;;;;;;;;27.57;54.15;98087.97;5054003;28;19908;-76
2023/08/06 02:29:16;;;;;;;;;;;;;;;27.57;53.18;98093.41;5054094;28;19909;-76
2023/08/06 02:31:41;;;;;;;;;;;;;;;27.57;56.08;98096.91;5054081;28;19915;-77
2023/08/06 02:34:06;;;;;;;;;;;;;;;27.58;55.94;98095.00;5053914;28;20309;-79
2023/08/06 02:36:32;;;;;;;;;;;;;;;27.54;52.37;98095.63;5053911;28;19909;-76
2023/08/06 02:38:57;;;;;;;;;;;;;;;27.52;55.67;98094.38;5053714;28;19909;-79
2023/08/06 02:41:22;;;;;;;;;;;;;;;27.54;54.31;98105.69;5053644;28;20588;-76
2023/08/06 02:43:47;;;;;;;;;;;;;;;27.57;53.64;98112.38;5053612;28;19995;-79
2023/08/06 02:46:13;;;;;;;;;;;;;;;27.58;55.69;98106.63;5053895;28;19909;-78
2023/08/06 02:48:38;;;;;;;;;;;;;;;27.55;56.06;98101.84;5035790;28;19916;-78
2023/08/06 02:51:03;;;;;;;;;;;;;;;27.51;55.70;98100.91;5053621;28;19904;-77
2023/08/06 02:53:29;;;;;;;;;;;;;;;27.50;54.91;98096.63;5053613;28;19917;-79
2023/08/06 02:55:55;;;;;;;;;;;;;;;27.45;54.63;98091.34;5053635;28;19915;-78
2023/08/06 02:58:23;;;;;;;;;;;;;;;27.44;54.03;98095.16;5053366;28;20382;-78
2023/08/06 03:01:02;;;;;;;;;;;;;;;27.45;53.30;98091.34;5053354;28;19909;-76
2023/08/06 03:03:28;;;;;;;;;;;;;;;27.42;55.67;98097.41;5035820;28;20016;-76
2023/08/06 03:05:53;;;;;;;;;;;;;;;27.41;52.77;98083.06;5054109;28;19952;-77
2023/08/06 03:08:22;;;;;;;;;;;;;;;27.43;54.26;98090.88;5054107;28;19947;-76
2023/08/06 03:10:47;;;;;;;;;;;;;;;27.41;55.74;98087.69;5053614;28;19916;-79
2023/08/06 03:13:13;;;;;;;;;;;;;;;27.37;53.73;98090.25;5053644;28;19909;-78
2023/08/06 03:15:38;;;;;;;;;;;;;;;27.35;56.82;98084.34;5053304;28;19962;-78
2023/08/06 03:18:03;;;;;;;;;;;;;;;27.34;56.41;98084.66;5035268;28;20386;-77
2023/08/06 03:20:28;;;;;;;;;;;;;;;27.33;55.65;98088.50;5053153;28;19916;-77
2023/08/06 03:22:54;;;;;;;;;;;;;;;27.31;57.56;98088.81;5052849;28;19913;-78
2023/08/06 03:25:19;;;;;;;;;;;;;;;27.30;55.93;98089.94;5052943;28;20296;-78
2023/08/06 03:27:44;;;;;;;;;;;;;;;27.27;57.78;98087.88;5052327;28;19944;-78
2023/08/06 03:30:10;;;;;;;;;;;;;;;27.24;58.12;98091.22;5053092;28;19909;-78
2023/08/06 03:32:35;;;;;;;;;;;;;;;27.21;58.44;98091.88;5053315;28;19917;-78
2023/08/06 03:35:00;;;;;;;;;;;;;;;27.21;57.33;98091.88;5053132;28;19904;-76
2023/08/06 03:37:25;;;;;;;;;;;;;;;27.22;56.99;98093.47;5053046;28;19916;-76
2023/08/06 03:39:50;;;;;;;;;;;;;;;27.26;55.28;98097.13;5062648;28;19909;-77
2023/08/06 03:42:16;;;;;;;;;;;;;;;27.27;56.85;98096.00;5056867;28;20377;-78
2023/08/06 03:44:41;;;;;;;;;;;;;;;27.30;57.88;98098.06;5052926;28;20021;-76
2023/08/06 03:47:06;;;;;;;;;;;;;;;27.31;56.38;98101.56;5052576;28;19909;-79
2023/08/06 03:49:31;;;;;;;;;;;;;;;27.31;56.56;98102.38;5052696;28;19932;-77
2023/08/06 03:51:57;;;;;;;;;;;;;;;27.30;58.18;98108.13;5052422;28;19909;-78
2023/08/06 03:54:22;;;;;;;;;;;;;;;27.28;58.32;98110.34;5034458;28;19952;-78
2023/08/06 03:56:47;;;;;;;;;;;;;;;27.29;56.57;98122.78;5034574;28;19908;-78
2023/08/06 03:59:13;;;;;;;;;;;;;;;27.34;56.66;98126.13;5052169;28;19981;-78
2023/08/06 04:01:38;;;;;;;;;;;;;;;27.36;57.56;98132.03;5053626;28;19920;-78
2023/08/06 04:04:03;;;;;;;;;;;;;;;27.33;57.73;98127.25;5063186;28;19920;-78
2023/08/06 04:06:28;;;;;;;;;;;;;;;27.30;57.54;98119.75;5057511;28;19966;-78
2023/08/06 04:08:53;;;;;;;;;;;;;;;27.28;57.39;98126.63;5052635;28;20397;-78
2023/08/06 04:11:19;;;;;;;;;;;;;;;27.23;58.33;98130.28;5034328;28;19912;-79
2023/08/06 04:13:44;;;;;;;;;;;;;;;27.22;57.97;98126.00;5052173;28;19909;-77
2023/08/06 04:16:09;;;;;;;;;;;;;;;27.15;55.61;98129.19;5052638;28;20004;-78
2023/08/06 04:18:35;;;;;;;;;;;;;;;27.06;57.67;98120.28;5052118;28;19909;-77
2023/08/06 04:21:01;;;;;;;;;;;;;;;27.03;57.32;98115.50;5052079;28;19916;-79
2023/08/06 04:23:26;;;;;;;;;;;;;;;27.02;56.66;98111.19;5051934;28;19913;-77
2023/08/06 04:25:52;;;;;;;;;;;;;;;27.00;56.85;98105.31;5051790;28;19915;-76
2023/08/06 04:28:17;;;;;;;;;;;;;;;26.99;55.69;98105.63;5034363;28;19909;-78
2023/08/06 04:30:42;;;;;;;;;;;;;;;27.01;56.35;98106.91;5051959;28;20351;-78
2023/08/06 04:33:07;;;;;;;;;;;;;;;27.04;56.42;98106.25;5051981;28;19909;-78
2023/08/06 04:35:33;;;;;;;;;;;;;;;27.12;56.10;98100.03;5051879;28;19912;-78
2023/08/06 04:37:58;;;;;;;;;;;;;;;27.22;56.00;98096.19;5051789;28;20298;-78
2023/08/06 04:40:23;;;;;;;;;;;;;;;27.24;56.23;98093.94;5051446;28;20388;-78
2023/08/06 04:42:48;;;;;;;;;;;;;;;27.25;57.03;98084.69;5051983;28;19963;-79
2023/08/06 04:45:14;;;;;;;;;;;;;;;27.29;57.04;98080.22;5051707;28;19916;-79
2023/08/06 04:47:39;;;;;;;;;;;;;;;27.33;56.85;98074.94;5051657;28;19915;-78
2023/08/06 04:50:04;;;;;;;;;;;;;;;27.44;53.10;98081.59;5051745;28;20401;-78
2023/08/06 04:52:32;;;;;;;;;;;;;;;27.45;54.52;98080.50;5051574;28;19908;-79
2023/08/06 04:54:57;;;;;;;;;;;;;;;27.51;55.16;98090.88;5051458;28;19983;-77
2023/08/06 04:57:22;;;;;;;;;;;;;;;27.48;56.42;98088.78;5033738;28;19909;-78
2023/08/06 04:59:48;;;;;;;;;;;;;;;27.55;57.50;98091.00;5051438;28;19947;-77
2023/08/06 05:02:13;;;;;;;;;;;;;;;27.57;56.90;98102.31;5033789;28;19909;-78
2023/08/06 05:04:39;;;;;;;;;;;;;;;27.58;53.62;98090.38;5033393;28;19999;-77
2023/08/06 05:07:05;;;;;;;;;;;;;;;27.61;53.47;98081.59;5051322;28;19915;-78
2023/08/06 05:09:30;;;;;;;;;;;;;;;27.59;55.35;98080.31;5051568;28;19913;-78
2023/08/06 05:11:56;;;;;;;;;;;;;;;27.63;55.04;98090.22;5051515;28;19913;-77
2023/08/06 05:14:21;;;;;;;;;;;;;;;27.63;56.97;98094.84;5051309;28;19908;-76
2023/08/06 05:16:46;;;;;;;;;;;;;;;27.63;56.13;98094.84;5033386;28;19909;-78
2023/08/06 05:19:12;;;;;;;;;;;;;;;27.68;56.41;98097.38;5051242;28;19909;-76
2023/08/06 05:21:37;;;;;;;;;;;;;;;27.73;56.28;98089.84;5051206;28;19952;-78
2023/08/06 05:24:02;;;;;;;;;;;;;;;27.78;56.32;98095.09;5051310;28;19920;-77
2023/08/06 05:26:27;;;;;;;;;;;;;;;27.83;53.87;98097.63;5051186;28;19908;-78
2023/08/06 05:28:53;;;;;;;;;;;;;;;27.83;56.92;98102.25;5051489;28;19932;-76
2023/08/06 05:31:18;;;;;;;;;;;;;;;27.87;56.03;98091.53;5033680;28;19908;-78
2023/08/06 05:33:43;;;;;;;;;;;;;;;27.90;54.01;98085.47;5033299;28;20034;-76
2023/08/06 05:36:09;;;;;;;;;;;;;;;27.92;55.98;98075.09;5051176;28;20404;-79
2023/08/06 05:38:34;;;;;;;;;;;;;;;27.95;54.41;98074.44;5051258;28;20374;-76
2023/08/06 05:40:59;;;;;;;;;;;;;;;27.99;53.44;98064.50;5051621;28;19909;-78
2023/08/06 05:43:24;;;;;;;;;;;;;;;27.94;54.02;98070.13;5051302;28;19916;-78
2023/08/06 05:45:50;;;;;;;;;;;;;;;27.93;55.84;98058.47;5051228;28;19908;-78
2023/08/06 05:48:15;;;;;;;;;;;;;;;27.92;54.44;98059.59;5051258;28;19948;-78
2023/08/06 05:50:41;;;;;;;;;;;;;;;27.95;55.47;98055.44;5053628;28;19991;-78
2023/08/06 05:53:06;;;;;;;;;;;;;;;28.03;55.86;98054.59;5055316;28;20324;-78
2023/08/06 05:55:32;;;;;;;;;;;;;;;28.09;56.08;98051.38;5055003;28;19915;-77
2023/08/06 05:57:58;;;;;;;;;;;;;;;28.19;54.62;98042.03;5054690;28;20378;-78
2023/08/06 06:00:23;;;;;;;;;;;;;;;28.30;54.96;98035.16;5054420;28;19917;-78
2023/08/06 06:02:48;;;;;;;;;;;;;;;28.37;54.51;98029.19;5054435;28;19916;-78
2023/08/06 06:05:14;;;;;;;;;;;;;;;28.43;54.18;98031.38;5054557;28;19916;-78
2023/08/06 06:07:39;;;;;;;;;;;;;;;28.47;55.25;98040.44;5036583;28;19913;-78
2023/08/06 06:10:04;;;;;;;;;;;;;;;28.47;54.82;98035.00;5054630;28;19932;-78
2023/08/06 06:12:30;;;;;;;;;;;;;;;28.50;55.02;98041.69;5036544;28;19962;-78
2023/08/06 06:14:55;;;;;;;;;;;;;;;28.48;54.24;98052.91;5054239;28;19916;-78
2023/08/06 06:17:20;;;;;;;;;;;;;;;28.42;54.38;98073.22;5054259;28;19909;-79
2023/08/06 06:19:46;;;;;;;;;;;;;;;28.40;53.61;98077.41;5054154;28;20300;-77
2023/08/06 06:22:11;;;;;;;;;;;;;;;28.36;54.55;98090.84;5054232;28;19966;-76
2023/08/06 06:24:37;;;;;;;;;;;;;;;28.34;54.33;98081.44;5053825;28;20407;-78
2023/08/06 06:27:02;;;;;;;;;;;;;;;28.31;54.43;98096.47;5053963;28;20019;-79
2023/08/06 06:29:27;;;;;;;;;;;;;;;28.27;53.91;98090.09;5053980;28;19908;-77
2023/08/06 06:31:53;;;;;;;;;;;;;;;28.26;54.36;98082.28;5054003;28;19912;-78
2023/08/06 06:34:18;;;;;;;;;;;;;;;28.24;55.00;98070.94;5054160;28;19908;-78
2023/08/06 06:36:43;;;;;;;;;;;;;;;28.22;54.25;98076.66;5054122;28;19995;-78
2023/08/06 06:39:08;;;;;;;;;;;;;;;28.21;54.78;98079.69;5036189;28;20405;-77
2023/08/06 06:41:34;;;;;;;;;;;;;;;28.20;54.43;98088.97;5053964;28;19970;-77
2023/08/06 06:43:59;;;;;;;;;;;;;;;28.19;54.21;98101.75;5053962;28;20283;-78
2023/08/06 06:46:24;;;;;;;;;;;;;;;28.09;55.53;98121.91;5053844;28;19909;-77
2023/08/06 06:48:49;;;;;;;;;;;;;;;27.96;55.62;98143.84;5053980;28;20384;-77
2023/08/06 06:51:15;;;;;;;;;;;;;;;27.77;56.04;98161.31;5035884;28;19909;-77
2023/08/06 06:53:40;;;;;;;;;;;;;;;27.57;57.27;98144.91;5058915;28;20370;-78
2023/08/06 06:56:05;;;;;;;;;;;;;;;27.56;55.67;98102.66;5066890;28;19915;-78
2023/08/06 06:58:31;;;;;;;;;;;;;;;27.58;56.36;98112.06;5057957;28;20340;-77
2023/08/06 07:00:56;;;;;;;;;;;;;;;27.62;55.72;98098.69;5053192;28;20369;-78
2023/08/06 07:03:22;;;;;;;;;;;;;;;27.61;56.29;98067.25;5054140;28;19913;-77
2023/08/06 07:05:47;;;;;;;;;;;;;;;27.63;55.72;98084.00;5053689;28;20007;-77
2023/08/06 07:08:12;;;;;;;;;;;;;;;27.68;56.33;98132.63;5035652;28;19991;-78
2023/08/06 07:10:38;;;;;;;;;;;;;;;27.66;55.60;98183.69;5053528;28;19909;-77
2023/08/06 07:13:03;;;;;;;;;;;;;;;27.54;56.48;98198.66;5053429;28;19908;-74
2023/08/06 07:15:28;;;;;;;;;;;;;;;27.40;57.92;98151.94;5053069;28;19916;-74
2023/08/06 07:17:53;;;;;;;;;;;;;;;27.24;60.79;98091.22;5053494;28;19908;-76
2023/08/06 07:20:19;;;;;;;;;;;;;;;27.11;58.15;98063.22;5058146;28;20360;-75
2023/08/06 07:22:44;;;;;;;;;;;;;;;27.01;57.97;98082.50;5054711;28;19908;-76
2023/08/06 07:25:10;;;;;;;;;;;;;;;26.78;58.09;98106.25;5035134;28;20004;-75
2023/08/06 07:27:35;;;;;;;;;;;;;;;26.63;57.99;98103.97;5052991;28;19966;-76
2023/08/06 07:30:00;;;;;;;;;;;;;;;26.47;57.66;98105.56;5035128;28;19909;-75
2023/08/06 07:32:27;;;;;;;;;;;;;;;26.35;58.07;98119.72;5053421;28;19966;-76
2023/08/06 07:34:56;;;;;;;;;;;;;;;26.18;57.58;98127.75;5052743;28;19958;-75
2023/08/06 07:37:22;;;;;;;;;;;;;;;26.06;58.28;98122.97;5052530;28;19977;-75
2023/08/06 07:39:47;;;;;;;;;;;;;;;25.89;58.74;98134.47;5052651;28;20389;-76
2023/08/06 07:42:12;;;;;;;;;;;;;;;25.79;58.78;98153.69;5052697;28;19927;-75
2023/08/06 07:44:37;;;;;;;;;;;;;;;25.69;58.39;98137.75;5034495;28;20003;-76
2023/08/06 07:47:03;;;;;;;;;;;;;;;25.69;59.66;98151.25;5052267;28;19996;-75
2023/08/06 07:49:28;;;;;;;;;;;;;;;25.70;57.29;98169.06;5052421;28;19909;-75
2023/08/06 07:51:53;;;;;;;;;;;;;;;25.64;57.71;98194.59;5052328;28;20401;-76
2023/08/06 07:54:19;;;;;;;;;;;;;;;25.49;57.73;98198.50;5052267;28;19919;-76
2023/08/06 07:56:44;;;;;;;;;;;;;;;25.41;58.07;98203.84;5034360;28;19909;-76
2023/08/06 07:59:09;;;;;;;;;;;;;;;25.36;57.13;98185.06;5052120;28;19948;-76
2023/08/06 08:01:34;;;;;;;;;;;;;;;25.33;58.40;98176.44;5052410;28;19908;-76
2023/08/06 08:04:00;;;;;;;;;;;;;;;25.30;58.73;98157.34;5052580;28;19967;-76
2023/08/06 08:06:25;;;;;;;;;;;;;;;25.31;56.83;98157.06;5052308;28;20009;-75
2023/08/06 08:08:51;;;;;;;;;;;;;;;25.21;58.50;98151.88;5052466;28;20003;-74
2023/08/06 08:11:17;;;;;;;;;;;;;;;25.17;57.88;98134.69;5034192;28;19980;-77
2023/08/06 08:13:42;;;;;;;;;;;;;;;25.23;57.21;98116.44;5052011;28;19913;-75
2023/08/06 08:16:08;;;;;;;;;;;;;;;25.29;58.04;98134.16;5052449;28;20366;-76
2023/08/06 08:18:33;;;;;;;;;;;;;;;25.38;58.99;98131.50;5052099;28;19970;-76
2023/08/06 08:20:58;;;;;;;;;;;;;;;25.48;57.45;98125.84;5051850;28;19905;-76
2023/08/06 08:23:24;;;;;;;;;;;;;;;25.68;57.53;98130.72;5051685;28;19916;-77
2023/08/06 08:25:49;;;;;;;;;;;;;;;25.86;56.25;98127.00;5034233;28;19915;-76
2023/08/06 08:28:15;;;;;;;;;;;;;;;26.01;58.55;98108.75;5052000;28;19916;-74
2023/08/06 08:30:41;;;;;;;;;;;;;;;26.05;58.29;98094.31;5052003;28;19908;-75
2023/08/06 08:33:07;;;;;;;;;;;;;;;26.18;56.10;98076.38;5034291;28;19970;-75
2023/08/06 08:35:32;;;;;;;;;;;;;;;26.39;56.69;98065.75;5051661;28;20462;-74
2023/08/06 08:37:58;;;;;;;;;;;;;;;26.50;55.48;98075.94;5051896;28;19909;-75
2023/08/06 08:40:28;;;;;;;;;;;;;;;26.60;56.04;98070.22;5033924;28;19909;-76
2023/08/06 08:42:54;;;;;;;;;;;;;;;26.85;54.74;98071.34;5051672;28;20385;-76
2023/08/06 08:45:20;;;;;;;;;;;;;;;27.07;55.61;98078.53;5051606;28;19966;-76
2023/08/06 08:47:47;;;;;;;;;;;;;;;27.27;54.28;98092.50;5033840;28;19901;-76
2023/08/06 08:50:14;;;;;;;;;;;;;;;27.41;53.36;98093.09;5034002;28;19909;-75
2023/08/06 08:52:42;;;;;;;;;;;;;;;27.46;53.20;98099.16;5051815;28;19909;-77
2023/08/06 08:55:08;;;;;;;;;;;;;;;27.63;53.09;98109.19;5051721;28;19908;-77
2023/08/06 08:57:33;;;;;;;;;;;;;;;27.65;52.30;98095.31;5051983;28;19917;-76
2023/08/06 08:59:58;;;;;;;;;;;;;;;27.74;53.51;98098.78;5051515;28;19925;-77
2023/08/06 09:02:25;;;;;;;;;;;;;;;27.84;52.57;98104.63;5051477;28;20400;-77
2023/08/06 09:04:51;;;;;;;;;;;;;;;27.98;52.64;98101.69;5051278;28;19923;-78
2023/08/06 09:07:18;;;;;;;;;;;;;;;28.08;52.97;98105.97;5049929;28;19947;-75
2023/08/06 09:09:43;;;;;;;;;;;;;;;28.21;53.16;98110.34;5045895;28;20036;-78
2023/08/06 09:12:15;;;;;;;;;;;;;;;28.46;53.60;98100.50;5031797;28;19947;-77
2023/08/06 09:14:40;;;;;;;;;;;;;;;28.66;53.29;98120.66;5033407;28;19908;-77
2023/08/06 09:17:06;;;;;;;;;;;;;;;28.85;52.26;98126.44;5051465;28;19931;-77
2023/08/06 09:19:31;;;;;;;;;;;;;;;28.90;53.68;98133.59;5051301;28;19909;-77
2023/08/06 09:21:57;;;;;;;;;;;;;;;28.93;53.31;98122.06;5051433;28;20392;-77
2023/08/06 09:24:22;;;;;;;;;;;;;;;28.97;52.97;98122.97;5029953;28;19917;-77
2023/08/06 09:26:47;;;;;;;;;;;;;;;29.21;52.57;98116.88;5029975;28;19913;-77
2023/08/06 09:29:13;;;;;;;;;;;;;;;29.46;51.79;98132.16;5055077;28;19905;-78
2023/08/06 09:31:41;;;;;;;;;;;;;;;29.39;51.58;98121.78;5055202;28;19916;-78
2023/08/06 09:34:10;;;;;;;;;;;;;;;29.49;52.87;98114.38;5037139;28;19916;-77
2023/08/06 09:36:39;;;;;;;;;;;;;;;29.69;51.97;98097.97;5054553;28;19909;-77
2023/08/06 09:39:12;;;;;;;;;;;;;;;30.00;51.11;98107.53;5022010;28;19944;-76
2023/08/06 09:41:37;;;;;;;;;;;;;;;30.12;50.25;98106.75;5048148;28;19951;-76
2023/08/06 09:44:02;;;;;;;;;;;;;;;30.26;51.20;98101.75;5055003;28;19913;-76
2023/08/06 09:46:28;;;;;;;;;;;;;;;30.34;49.77;98095.38;5054968;28;20305;-77
2023/08/06 09:48:53;;;;;;;;;;;;;;;30.51;49.89;98072.56;5054837;28;20298;-76
2023/08/06 09:51:18;;;;;;;;;;;;;;;30.68;49.32;98069.59;5054962;28;20002;-76
2023/08/06 09:53:45;;;;;;;;;;;;;;;30.89;49.71;98072.91;5035493;28;20055;-78
2023/08/06 09:56:11;;;;;;;;;;;;;;;31.06;48.31;98063.63;5054612;28;19909;-77
2023/08/06 09:58:38;;;;;;;;;;;;;;;31.23;47.69;98066.09;5036593;28;20000;-77
2023/08/06 10:01:03;;;;;;;;;;;;;;;31.36;47.28;98082.38;5055178;28;19915;-77
2023/08/06 10:03:29;;;;;;;;;;;;;;;31.47;46.91;98083.44;5054583;28;19921;-78
2023/08/06 10:05:58;;;;;;;;;;;;;;;31.63;46.80;98078.00;5035802;28;19916;-76
2023/08/06 10:08:23;;;;;;;;;;;;;;;31.86;46.01;98089.91;5054219;28;19912;-76
2023/08/06 10:10:49;;;;;;;;;;;;;;;31.85;45.76;98088.31;5054581;28;19916;-79
2023/08/06 10:13:14;;;;;;;;;;;;;;;32.06;44.91;98090.78;5036387;28;19908;-77
2023/08/06 10:15:40;;;;;;;;;;;;;;;32.14;44.82;98103.44;5054296;28;20356;-78
2023/08/06 10:18:06;;;;;;;;;;;;;;;32.29;44.47;98096.41;5054349;28;19962;-78
2023/08/06 10:20:35;;;;;;;;;;;;;;;32.54;43.71;98104.00;5054232;28;19951;-77
2023/08/06 10:23:01;;;;;;;;;;;;;;;32.77;43.27;98095.94;5054229;28;19913;-78
2023/08/06 10:25:30;;;;;;;;;;;;;;;32.91;43.21;98097.38;5054291;28;19908;-75
2023/08/06 10:27:56;;;;;;;;;;;;;;;32.67;43.45;98096.44;5053077;28;20345;-76
2023/08/06 10:30:23;;;;;;;;;;;;;;;32.57;42.92;98091.56;5054483;28;19955;-76
2023/08/06 10:32:49;;;;;;;;;;;;;;;32.65;41.74;98092.50;5036413;28;19909;-76
2023/08/06 10:35:31;;;;;;;;;;;;;;;32.84;41.87;98103.50;5037016;28;19962;-76
2023/08/06 10:38:02;;;;;;;;;;;;;;;33.04;40.56;98083.19;5061816;28;19916;-77
2023/08/06 10:40:29;;;;;;;;;;;;;;;33.35;38.94;98082.22;5056211;28;19962;-77
2023/08/06 10:42:54;;;;;;;;;;;;;;;33.57;35.65;98083.41;5054276;28;19917;-78
2023/08/06 10:45:20;;;;;;;;;;;;;;;33.77;35.25;98086.84;5054534;28;19909;-78
2023/08/06 10:47:46;;;;;;;;;;;;;;;33.96;35.05;98088.75;5053961;28;19958;-76
2023/08/06 10:50:17;;;;;;;;;;;;;;;34.21;36.19;98080.94;5053696;28;19908;-77
2023/08/06 10:52:43;;;;;;;;;;;;;;;34.30;35.74;98081.44;5053911;28;19908;-77
2023/08/06 10:55:09;;;;;;;;;;;;;;;34.33;34.52;98092.50;5053303;28;19909;-76
2023/08/06 10:57:34;;;;;;;;;;;;;;;34.31;36.55;98097.53;5035534;28;19939;-78
2023/08/06 10:59:59;;;;;;;;;;;;;;;34.28;36.74;98092.78;5053261;28;19916;-78
2023/08/06 11:02:25;;;;;;;;;;;;;;;34.29;35.78;98099.06;5053586;28;19962;-78
2023/08/06 11:04:50;;;;;;;;;;;;;;;34.32;35.96;98110.09;5053206;28;20382;-78
2023/08/06 11:07:15;;;;;;;;;;;;;;;34.48;35.63;98104.44;5053474;28;19958;-78
2023/08/06 11:09:41;;;;;;;;;;;;;;;34.50;35.88;98102.13;5053431;28;19913;-78
2023/08/06 11:12:09;;;;;;;;;;;;;;;34.66;35.56;98107.41;5035709;28;19909;-78
2023/08/06 11:14:34;;;;;;;;;;;;;;;34.87;35.18;98115.13;5035810;28;19909;-77
2023/08/06 11:17:00;;;;;;;;;;;;;;;34.97;35.47;98106.28;5035718;28;19931;-78
2023/08/06 11:19:25;;;;;;;;;;;;;;;35.00;34.98;98106.31;5053947;28;19912;-79
2023/08/06 11:21:51;;;;;;;;;;;;;;;35.09;35.13;98110.72;5053525;28;19909;-78
2023/08/06 11:24:17;;;;;;;;;;;;;;;35.17;35.13;98121.41;5052957;28;20378;-75
2023/08/06 11:26:44;;;;;;;;;;;;;;;35.22;34.50;98126.53;5052868;28;19909;-77
2023/08/06 11:29:09;;;;;;;;;;;;;;;35.38;35.15;98131.84;5053033;28;19978;-78
2023/08/06 11:31:36;;;;;;;;;;;;;;;34.89;31.64;98132.00;5052886;28;19912;-78
2023/08/06 11:34:01;;;;;;;;;;;;;;;34.28;33.52;98133.88;5052834;28;20306;-78
2023/08/06 11:36:30;;;;;;;;;;;;;;;33.77;33.65;98133.41;5052761;28;19916;-77
2023/08/06 11:38:56;;;;;;;;;;;;;;;33.44;34.68;98128.50;5052704;28;20306;-79
2023/08/06 11:41:21;;;;;;;;;;;;;;;33.15;34.87;98127.16;5052595;28;19909;-79
2023/08/06 11:43:47;;;;;;;;;;;;;;;32.88;35.57;98130.91;5052624;28;19912;-76
2023/08/06 11:46:12;;;;;;;;;;;;;;;32.63;36.41;98142.03;5034921;28;19909;-77
2023/08/06 11:48:53;;;;;;;;;;;;;;;32.42;36.73;98138.84;5052125;28;20313;-77
2023/08/06 11:51:22;;;;;;;;;;;;;;;32.18;37.12;98124.25;5052595;28;19909;-77
2023/08/06 11:53:51;;;;;;;;;;;;;;;32.06;37.78;98124.34;5052400;28;19909;-77
2023/08/06 11:56:16;;;;;;;;;;;;;;;31.97;37.68;98126.47;5034458;28;20302;-77
2023/08/06 11:58:41;;;;;;;;;;;;;;;31.98;38.19;98136.25;5052187;28;19927;-77
2023/08/06 12:01:07;;;;;;;;;;;;;;;32.04;37.84;98128.56;5034119;28;20443;-77
2023/08/06 12:03:32;;;;;;;;;;;;;;;32.07;37.86;98131.38;5052074;28;19932;-77
2023/08/06 12:05:58;;;;;;;;;;;;;;;32.08;37.69;98124.78;5052327;28;19908;-78
2023/08/06 12:08:26;;;;;;;;;;;;;;;32.29;38.03;98124.50;5052302;28;19909;-78
2023/08/06 12:10:53;;;;;;;;;;;;;;;32.43;37.24;98127.56;5052154;28;19915;-77
2023/08/06 12:13:18;;;;;;;;;;;;;;;32.37;37.33;98120.78;5051943;28;19909;-78
2023/08/06 12:15:44;;;;;;;;;;;;;;;32.30;37.60;98114.38;5052122;28;20301;-77
2023/08/06 12:18:10;;;;;;;;;;;;;;;32.06;37.59;98110.69;5052012;28;19912;-77
2023/08/06 12:20:35;;;;;;;;;;;;;;;31.99;38.32;98115.19;5034050;28;20297;-77
2023/08/06 12:23:00;;;;;;;;;;;;;;;31.90;38.55;98116.13;5051834;28;19982;-77
2023/08/06 12:25:25;;;;;;;;;;;;;;;31.87;38.27;98116.84;5034037;28;20003;-78
2023/08/06 12:27:51;;;;;;;;;;;;;;;31.80;38.48;98118.59;5052095;28;20339;-77
2023/08/06 12:30:16;;;;;;;;;;;;;;;31.79;38.72;98120.53;5052114;28;20459;-78
2023/08/06 12:32:41;;;;;;;;;;;;;;;31.75;39.29;98136.03;5052736;28;19916;-78
2023/08/06 12:35:07;;;;;;;;;;;;;;;31.69;40.36;98122.97;5034042;28;19915;-75
2023/08/06 12:37:32;;;;;;;;;;;;;;;31.52;39.89;98126.84;5033785;28;19909;-77
2023/08/06 12:39:57;;;;;;;;;;;;;;;31.48;40.10;98124.03;5051841;28;19991;-77